createdAt,value
2023-03-06T00:02:05.068Z,62.21
2023-03-06T00:04:31.739Z,62.50
2023-03-06T00:06:58.508Z,62.27
2023-03-06T00:09:25.409Z,62.33
2023-03-06T00:11:54.506Z,62.14
2023-03-06T00:14:21.293Z,62.27
2023-03-06T00:16:48.394Z,62.46
2023-03-06T00:19:16.380Z,62.17
2023-03-06T00:21:43.070Z,60.83
2023-03-06T00:24:09.989Z,62.30
2023-03-06T00:26:36.788Z,62.29
2023-03-06T00:29:03.692Z,62.55
2023-03-06T00:31:30.584Z,62.63
2023-03-06T00:33:57.671Z,62.82
2023-03-06T00:36:24.413Z,62.91
2023-03-06T00:38:51.237Z,63.06
2023-03-06T00:41:20.539Z,62.60
2023-03-06T00:43:47.307Z,62.78
2023-03-06T00:46:14.615Z,62.92
2023-03-06T00:48:41.436Z,62.89
2023-03-06T00:51:10.940Z,62.36
2023-03-06T00:53:38.908Z,62.63
2023-03-06T00:56:06.100Z,62.46
2023-03-06T00:58:33.009Z,62.51
2023-03-06T01:00:59.783Z,62.52
2023-03-06T01:03:27.908Z,62.59
2023-03-06T01:05:54.722Z,62.67
2023-03-06T01:08:21.689Z,62.47
2023-03-06T01:10:48.668Z,62.76
2023-03-06T01:13:16.393Z,62.64
2023-03-06T01:15:44.066Z,62.83
2023-03-06T01:18:10.904Z,62.76
2023-03-06T01:20:37.999Z,62.77
2023-03-06T01:23:04.780Z,63.03
2023-03-06T01:25:31.705Z,62.97
2023-03-06T01:28:00.235Z,62.80
2023-03-06T01:30:27.200Z,63.10
2023-03-06T01:32:54.433Z,62.98
2023-03-06T01:35:24.779Z,62.68
2023-03-06T01:37:51.686Z,62.96
2023-03-06T01:40:18.474Z,62.96
2023-03-06T01:42:46.790Z,63.15
2023-03-06T01:45:14.218Z,63.02
2023-03-06T01:47:42.157Z,63.01
2023-03-06T01:50:12.887Z,62.52
2023-03-06T01:52:49.200Z,62.15
2023-03-06T01:55:19.588Z,62.90
2023-03-06T01:57:55.166Z,61.82
2023-03-06T02:00:25.584Z,62.42
2023-03-06T02:03:01.324Z,61.99
2023-03-06T02:05:27.858Z,62.91
2023-03-06T02:07:55.186Z,63.08
2023-03-06T02:10:22.102Z,63.03
2023-03-06T02:12:51.127Z,63.26
2023-03-06T02:15:21.058Z,63.01
2023-03-06T02:17:48.516Z,63.30
2023-03-06T02:20:40.122Z,61.96
2023-03-06T02:23:18.398Z,62.26
2023-03-06T02:25:48.096Z,62.96
2023-03-06T02:28:18.431Z,62.95
2023-03-06T02:30:47.477Z,63.09
2023-03-06T02:33:16.784Z,63.05
2023-03-06T02:35:49.712Z,62.44
2023-03-06T02:38:18.928Z,63.10
2023-03-06T02:40:49.853Z,62.66
2023-03-06T02:43:21.145Z,62.43
2023-03-06T02:45:50.293Z,63.06
2023-03-06T02:48:18.334Z,63.19
2023-03-06T02:50:46.807Z,63.22
2023-03-06T02:53:15.396Z,63.30
2023-03-06T02:55:42.953Z,63.24
2023-03-06T02:58:09.698Z,63.31
2023-03-06T03:00:36.935Z,63.14
2023-03-06T03:03:07.073Z,63.06
2023-03-06T03:05:33.676Z,63.10
2023-03-06T03:08:08.115Z,63.05
2023-03-06T03:10:35.284Z,62.86
2023-03-06T03:13:02.137Z,63.09
2023-03-06T03:15:28.909Z,63.06
2023-03-06T03:17:55.488Z,63.27
2023-03-06T03:20:22.575Z,63.19
2023-03-06T03:22:55.189Z,62.71
2023-03-06T03:25:24.261Z,63.26
2023-03-06T03:27:51.758Z,63.39
2023-03-06T03:30:19.797Z,63.54
2023-03-06T03:32:46.302Z,63.61
2023-03-06T03:35:13.321Z,63.74
2023-03-06T03:37:41.402Z,63.77
2023-03-06T03:40:09.365Z,63.83
2023-03-06T03:42:36.681Z,64.00
2023-03-06T03:45:05.147Z,64.05
2023-03-06T03:47:31.923Z,64.06
2023-03-06T03:49:59.831Z,62.46
2023-03-06T03:52:26.464Z,64.04
2023-03-06T03:54:52.974Z,64.14
2023-03-06T03:57:19.619Z,63.99
2023-03-06T03:59:50.760Z,64.00
2023-03-06T04:02:23.362Z,64.19
2023-03-06T04:05:04.737Z,64.28
2023-03-06T04:07:31.550Z,64.11
2023-03-06T04:09:58.317Z,64.06
2023-03-06T04:12:26.732Z,64.14
2023-03-06T04:14:53.323Z,64.19
2023-03-06T04:17:19.929Z,64.35
2023-03-06T04:19:47.697Z,64.24
2023-03-06T04:22:14.383Z,64.29
2023-03-06T04:24:40.973Z,64.53
2023-03-06T04:27:08.534Z,64.52
2023-03-06T04:29:35.107Z,64.51
2023-03-06T04:32:02.685Z,64.24
2023-03-06T04:34:29.274Z,64.37
2023-03-06T04:36:56.844Z,64.33
2023-03-06T04:39:23.620Z,64.03
2023-03-06T04:41:50.430Z,64.15
2023-03-06T04:44:17.101Z,64.16
2023-03-06T04:46:43.598Z,64.25
2023-03-06T04:49:10.152Z,64.23
2023-03-06T04:51:36.868Z,64.30
2023-03-06T04:54:04.547Z,64.41
2023-03-06T04:56:31.043Z,64.25
2023-03-06T04:58:57.630Z,64.16
2023-03-06T05:01:24.705Z,64.19
2023-03-06T05:03:51.217Z,63.95
2023-03-06T05:06:17.764Z,64.08
2023-03-06T05:08:44.439Z,64.05
2023-03-06T05:11:11.248Z,64.25
2023-03-06T05:13:37.821Z,64.43
2023-03-06T05:16:05.671Z,64.30
2023-03-06T05:18:33.056Z,64.34
2023-03-06T05:20:59.911Z,64.60
2023-03-06T05:23:28.251Z,64.63
2023-03-06T05:25:54.932Z,64.45
2023-03-06T05:28:21.576Z,64.38
2023-03-06T05:30:48.417Z,64.42
2023-03-06T05:33:14.998Z,64.30
2023-03-06T05:35:46.059Z,63.89
2023-03-06T05:38:12.664Z,64.35
2023-03-06T05:40:43.236Z,63.86
2023-03-06T05:43:10.417Z,64.24
2023-03-06T05:45:37.419Z,64.25
2023-03-06T05:48:04.308Z,64.37
2023-03-06T05:50:30.906Z,64.63
2023-03-06T05:52:57.424Z,64.43
2023-03-06T05:55:24.173Z,64.69
2023-03-06T05:57:51.552Z,64.79
2023-03-06T06:00:19.090Z,64.64
2023-03-06T06:02:46.672Z,64.55
2023-03-06T06:05:13.702Z,64.24
2023-03-06T06:07:41.053Z,64.30
2023-03-06T06:10:08.958Z,64.36
2023-03-06T06:12:35.881Z,64.55
2023-03-06T06:15:02.753Z,64.63
2023-03-06T06:17:32.293Z,64.63
2023-03-06T06:19:59.020Z,65.03
2023-03-06T06:22:25.627Z,64.93
2023-03-06T06:24:52.393Z,65.12
2023-03-06T06:27:19.019Z,65.09
2023-03-06T06:29:45.515Z,65.30
2023-03-06T06:32:12.125Z,65.29
2023-03-06T06:34:38.737Z,65.41
2023-03-06T06:37:05.487Z,65.45
2023-03-06T06:39:32.217Z,65.52
2023-03-06T06:42:16.078Z,65.37
2023-03-06T06:44:45.324Z,65.47
2023-03-06T06:47:23.040Z,65.46
2023-03-06T06:49:54.685Z,64.19
2023-03-06T06:52:21.815Z,65.16
2023-03-06T06:54:48.381Z,65.20
2023-03-06T06:57:15.409Z,65.27
2023-03-06T06:59:42.076Z,65.29
2023-03-06T07:02:11.919Z,64.99
2023-03-06T07:04:44.318Z,65.48
2023-03-06T07:07:16.091Z,65.36
2023-03-06T07:09:42.708Z,65.47
2023-03-06T07:12:09.398Z,65.33
2023-03-06T07:14:36.580Z,65.14
2023-03-06T07:17:03.174Z,65.27
2023-03-06T07:19:29.799Z,65.30
2023-03-06T07:21:56.311Z,65.18
2023-03-06T07:24:22.815Z,65.14
2023-03-06T07:26:49.510Z,65.13
2023-03-06T07:29:16.165Z,64.81
2023-03-06T07:31:42.795Z,64.80
2023-03-06T07:34:13.067Z,62.95
2023-03-06T07:36:39.700Z,64.48
2023-03-06T07:39:09.806Z,64.29
2023-03-06T07:41:36.469Z,63.91
2023-03-06T07:44:03.114Z,63.72
2023-03-06T07:46:32.136Z,63.71
2023-03-06T07:48:58.647Z,63.65
2023-03-06T07:51:25.260Z,63.82
2023-03-06T07:53:51.902Z,63.62
2023-03-06T07:56:18.488Z,63.63
2023-03-06T07:58:46.347Z,63.09
2023-03-06T08:01:18.871Z,62.52
2023-03-06T08:03:45.974Z,63.10
2023-03-06T08:06:15.018Z,61.75
2023-03-06T08:08:44.537Z,61.55
2023-03-06T08:11:12.854Z,61.09
2023-03-06T08:13:39.592Z,55.25
2023-03-06T08:16:07.183Z,61.10
2023-03-06T08:18:34.238Z,61.06
2023-03-06T08:21:12.013Z,58.64
2023-03-06T08:23:39.641Z,61.16
2023-03-06T08:26:11.424Z,58.69
2023-03-06T08:28:37.957Z,60.01
2023-03-06T08:31:10.336Z,56.74
2023-03-06T08:33:37.361Z,59.67
2023-03-06T08:36:04.286Z,59.68
2023-03-06T08:38:30.953Z,59.97
2023-03-06T08:40:57.717Z,60.22
2023-03-06T08:43:24.257Z,60.65
2023-03-06T08:45:57.783Z,59.34
2023-03-06T08:48:25.286Z,60.64
2023-03-06T08:50:52.514Z,60.74
2023-03-06T08:53:19.262Z,60.38
2023-03-06T08:55:46.056Z,60.53
2023-03-06T08:58:12.871Z,59.31
2023-03-06T09:00:39.554Z,59.39
2023-03-06T09:03:06.211Z,59.87
2023-03-06T09:05:33.143Z,60.32
2023-03-06T09:07:59.732Z,60.38
2023-03-06T09:10:28.893Z,60.78
2023-03-06T09:12:55.541Z,60.71
2023-03-06T09:15:23.293Z,60.68
2023-03-06T09:17:50.370Z,60.68
2023-03-06T09:20:17.540Z,60.73
2023-03-06T09:22:44.185Z,60.08
2023-03-06T09:25:11.270Z,60.30
2023-03-06T09:27:37.789Z,60.57
2023-03-06T09:30:05.070Z,60.85
2023-03-06T09:32:31.630Z,60.93
2023-03-06T09:34:58.597Z,60.92
2023-03-06T09:37:25.225Z,60.79
2023-03-06T09:39:51.713Z,60.50
2023-03-06T09:42:24.947Z,59.19
2023-03-06T09:44:58.686Z,58.13
2023-03-06T09:47:47.778Z,57.14
2023-03-06T09:50:38.314Z,54.81
2023-03-06T09:53:31.089Z,55.67
2023-03-06T09:56:15.709Z,58.02
2023-03-06T09:58:48.787Z,57.50
2023-03-06T10:01:34.281Z,55.29
2023-03-06T10:04:09.169Z,56.03
2023-03-06T10:06:53.086Z,53.32
2023-03-06T10:09:52.669Z,54.19
2023-03-06T10:12:29.131Z,55.72
2023-03-06T10:15:22.371Z,54.04
2023-03-06T10:17:49.011Z,57.39
2023-03-06T10:20:17.282Z,56.33
2023-03-06T10:23:01.063Z,55.44
2023-03-06T10:25:44.483Z,53.69
2023-03-06T10:28:17.418Z,52.99
2023-03-06T10:30:55.902Z,51.10
2023-03-06T10:33:30.479Z,50.71
2023-03-06T10:35:57.318Z,52.22
2023-03-06T10:38:30.956Z,49.13
2023-03-06T10:41:12.714Z,47.97
2023-03-06T10:44:02.138Z,49.96
2023-03-06T10:46:39.683Z,51.85
2023-03-06T10:49:24.150Z,48.62
2023-03-06T10:52:06.248Z,49.27
2023-03-06T10:54:38.953Z,52.16
2023-03-06T10:57:17.372Z,51.40
2023-03-06T11:00:00.931Z,53.29
2023-03-06T11:02:33.690Z,53.15
2023-03-06T11:05:02.128Z,53.53
2023-03-06T11:13:22.147Z,49.16
2023-03-06T11:16:30.122Z,50.08
2023-03-06T11:19:05.140Z,49.38
2023-03-06T11:21:34.594Z,51.74
2023-03-06T11:24:11.901Z,47.45
2023-03-06T11:26:46.719Z,50.47
2023-03-06T11:29:38.965Z,48.45
2023-03-06T11:32:23.785Z,50.48
2023-03-06T11:34:59.145Z,50.96
2023-03-06T11:37:37.670Z,51.46
2023-03-06T11:40:15.281Z,51.02
2023-03-06T11:43:04.423Z,50.20
2023-03-06T11:45:44.916Z,51.15
2023-03-06T11:48:14.041Z,51.65
2023-03-06T11:50:46.764Z,51.41
2023-03-06T11:53:18.556Z,48.24
2023-03-06T11:55:59.741Z,47.18
2023-03-06T11:59:10.803Z,50.65
2023-03-06T12:02:01.660Z,48.38
2023-03-06T12:04:41.359Z,45.68
2023-03-06T12:07:20.833Z,49.07
2023-03-06T12:09:57.511Z,49.43
2023-03-06T12:12:59.988Z,49.83
2023-03-06T12:16:03.714Z,49.03
2023-03-06T12:18:35.061Z,50.53
2023-03-06T12:21:15.425Z,49.59
2023-03-06T12:24:01.602Z,49.77
2023-03-06T12:26:49.923Z,50.56
2023-03-06T12:29:32.632Z,50.04
2023-03-06T12:32:28.443Z,49.58
2023-03-06T12:35:20.518Z,51.57
2023-03-06T12:38:05.585Z,50.98
2023-03-06T12:40:55.899Z,49.27
2023-03-06T12:43:34.103Z,50.76
2023-03-06T12:46:24.731Z,50.76
2023-03-06T12:49:31.914Z,51.70
2023-03-06T12:51:59.989Z,52.90
2023-03-06T12:54:30.626Z,52.32
2023-03-06T12:56:59.879Z,52.23
2023-03-06T12:59:35.405Z,50.72
2023-03-06T13:02:22.585Z,50.35
2023-03-06T13:05:02.761Z,51.81
2023-03-06T13:07:37.771Z,49.42
2023-03-06T13:10:28.077Z,50.87
2023-03-06T13:12:58.203Z,51.64
2023-03-06T13:15:44.798Z,51.73
2023-03-06T13:18:23.316Z,51.75
2023-03-06T13:20:55.156Z,52.80
2023-03-06T13:23:30.608Z,52.22
2023-03-06T13:26:18.719Z,52.65
2023-03-06T13:28:49.439Z,51.84
2023-03-06T13:31:27.926Z,51.61
2023-03-06T13:34:04.147Z,52.12
2023-03-06T13:36:38.318Z,52.47
2023-03-06T13:39:10.523Z,52.23
2023-03-06T13:41:54.662Z,53.09
2023-03-06T13:44:24.320Z,52.68
2023-03-06T13:47:05.027Z,51.43
2023-03-06T13:49:33.563Z,53.27
2023-03-06T13:52:18.163Z,52.98
2023-03-06T13:55:11.899Z,49.63
2023-03-06T13:57:44.965Z,52.67
2023-03-06T14:00:42.074Z,50.78
2023-03-06T14:03:31.702Z,51.98
2023-03-06T14:05:58.441Z,53.02
2023-03-06T14:08:29.449Z,52.24
2023-03-06T14:11:06.665Z,51.19
2023-03-06T14:13:45.464Z,53.27
2023-03-06T14:16:20.839Z,52.11
2023-03-06T14:18:50.450Z,52.22
2023-03-06T14:21:28.154Z,52.20
2023-03-06T14:24:03.838Z,51.58
2023-03-06T14:26:40.708Z,51.79
2023-03-06T14:29:20.391Z,50.89
2023-03-06T14:31:53.300Z,52.19
2023-03-06T14:34:25.814Z,52.31
2023-03-06T14:36:59.961Z,51.94
2023-03-06T14:39:40.307Z,52.48
2023-03-06T14:42:19.920Z,51.39
2023-03-06T14:45:19.980Z,49.37
2023-03-06T14:47:51.745Z,52.68
2023-03-06T14:50:25.832Z,52.55
2023-03-06T14:52:56.486Z,52.59
2023-03-06T14:55:28.148Z,52.48
2023-03-06T14:58:00.492Z,52.68
2023-03-06T15:00:34.753Z,52.39
2023-03-06T15:03:04.339Z,53.53
2023-03-06T15:05:31.725Z,53.26
2023-03-06T15:08:03.162Z,53.01
2023-03-06T15:10:32.851Z,53.10
2023-03-06T15:13:20.411Z,52.39
2023-03-06T15:16:08.839Z,52.03
2023-03-06T15:18:42.757Z,51.87
2023-03-06T15:21:20.648Z,50.77
2023-03-06T15:23:49.831Z,53.06
2023-03-06T15:26:19.336Z,51.85
2023-03-06T15:29:00.009Z,51.88
2023-03-06T15:31:40.345Z,53.14
2023-03-06T15:34:06.998Z,53.91
2023-03-06T15:36:47.697Z,52.66
2023-03-06T15:39:36.545Z,52.91
2023-03-06T15:42:24.260Z,52.84
2023-03-06T15:44:56.337Z,53.33
2023-03-06T15:47:23.817Z,54.42
2023-03-06T15:49:50.477Z,54.33
2023-03-06T15:52:16.942Z,54.32
2023-03-06T15:54:46.075Z,54.37
2023-03-06T15:57:26.023Z,53.12
2023-03-06T15:59:53.376Z,54.39
2023-03-06T16:02:22.518Z,54.26
2023-03-06T16:04:49.394Z,54.72
2023-03-06T16:07:16.554Z,54.62
2023-03-06T16:09:43.851Z,54.06
2023-03-06T16:12:21.208Z,52.82
2023-03-06T16:14:48.833Z,54.43
2023-03-06T16:17:16.048Z,54.72
2023-03-06T16:19:42.597Z,54.68
2023-03-06T16:22:09.132Z,54.81
2023-03-06T16:24:35.600Z,54.66
2023-03-06T16:27:02.707Z,54.79
2023-03-06T16:29:29.753Z,54.77
2023-03-06T16:31:57.491Z,54.32
2023-03-06T16:34:24.679Z,54.24
2023-03-06T16:36:51.309Z,54.53
2023-03-06T16:39:21.732Z,54.17
2023-03-06T16:41:48.400Z,54.56
2023-03-06T16:44:15.081Z,54.86
2023-03-06T16:46:43.164Z,54.68
2023-03-06T16:49:20.479Z,53.17
2023-03-06T16:51:47.086Z,54.81
2023-03-06T16:54:13.869Z,54.84
2023-03-06T16:56:41.052Z,54.81
2023-03-06T16:59:07.784Z,54.77
2023-03-06T17:01:34.512Z,55.10
2023-03-06T17:04:01.380Z,54.91
2023-03-06T17:06:28.445Z,55.00
2023-03-06T17:08:55.005Z,54.80
2023-03-06T17:11:21.597Z,54.75
2023-03-06T17:13:48.245Z,54.92
2023-03-06T17:16:15.394Z,54.65
2023-03-06T17:18:45.712Z,54.71
2023-03-06T17:21:13.662Z,54.88
2023-03-06T17:23:40.207Z,55.18
2023-03-06T17:26:15.259Z,54.98
2023-03-06T17:28:42.559Z,55.00
2023-03-06T17:31:20.904Z,53.93
2023-03-06T17:33:48.442Z,55.08
2023-03-06T17:36:16.092Z,55.40
2023-03-06T17:38:43.054Z,55.75
2023-03-06T17:41:10.749Z,55.33
2023-03-06T17:43:37.990Z,55.71
2023-03-06T17:46:06.693Z,55.42
2023-03-06T17:48:34.030Z,55.96
2023-03-06T17:51:03.021Z,55.85
2023-03-06T17:53:29.606Z,56.10
2023-03-06T17:55:56.416Z,56.02
2023-03-06T17:58:23.049Z,56.38
2023-03-06T18:00:49.666Z,56.25
2023-03-06T18:03:16.307Z,56.18
2023-03-06T18:05:43.348Z,56.37
2023-03-06T18:08:09.889Z,56.34
2023-03-06T18:10:40.304Z,55.01
2023-03-06T18:13:07.661Z,56.49
2023-03-06T18:15:37.658Z,56.47
2023-03-06T18:18:04.459Z,56.37
2023-03-06T18:20:31.045Z,56.43
2023-03-06T18:22:57.610Z,56.19
2023-03-06T18:25:24.129Z,55.96
2023-03-06T18:27:50.894Z,56.23
2023-03-06T18:30:17.698Z,56.08
2023-03-06T18:32:44.356Z,56.26
2023-03-06T18:35:10.828Z,56.25
2023-03-06T18:37:37.445Z,56.12
2023-03-06T18:40:04.335Z,56.26
2023-03-06T18:42:30.906Z,56.64
2023-03-06T18:44:57.348Z,56.28
2023-03-06T18:47:23.822Z,56.56
2023-03-06T18:49:50.353Z,56.44
2023-03-06T18:52:16.885Z,56.61
2023-03-06T18:54:43.393Z,56.52
2023-03-06T18:57:09.890Z,56.57
2023-03-06T18:59:36.880Z,56.43
2023-03-06T19:02:03.841Z,56.67
2023-03-06T19:04:30.315Z,56.32
2023-03-06T19:06:56.817Z,56.63
2023-03-06T19:09:23.490Z,56.54
2023-03-06T19:11:49.962Z,55.99
2023-03-06T19:14:16.776Z,56.11
2023-03-06T19:16:43.394Z,56.37
2023-03-06T19:19:10.005Z,56.21
2023-03-06T19:21:36.520Z,55.83
2023-03-06T19:24:03.330Z,55.35
2023-03-06T19:26:29.939Z,55.82
2023-03-06T19:28:56.383Z,55.97
2023-03-06T19:31:26.219Z,55.47
2023-03-06T19:33:54.065Z,55.84
2023-03-06T19:36:21.561Z,56.03
2023-03-06T19:38:48.069Z,56.23
2023-03-06T19:41:14.535Z,56.39
2023-03-06T19:43:43.758Z,56.12
2023-03-06T19:46:13.874Z,56.07
2023-03-06T19:48:41.543Z,56.26
2023-03-06T19:51:09.093Z,56.31
2023-03-06T19:53:35.609Z,55.74
2023-03-06T19:56:09.470Z,54.31
2023-03-06T19:58:35.984Z,55.82
2023-03-06T20:01:13.820Z,54.78
2023-03-06T20:03:40.682Z,55.66
2023-03-06T20:06:12.532Z,54.31
2023-03-06T20:08:39.082Z,55.83
2023-03-06T20:11:06.687Z,55.90
2023-03-06T20:13:33.506Z,55.65
2023-03-06T20:16:06.934Z,53.80
2023-03-06T20:18:39.507Z,55.06
2023-03-06T20:21:06.448Z,55.96
2023-03-06T20:23:33.607Z,56.23
2023-03-06T20:26:05.770Z,54.87
2023-03-06T20:28:33.293Z,56.38
2023-03-06T20:31:06.474Z,54.69
2023-03-06T20:33:34.792Z,56.33
2023-03-06T20:36:01.543Z,56.16
2023-03-06T20:38:28.295Z,56.36
2023-03-06T20:40:55.108Z,56.10
2023-03-06T20:43:23.661Z,56.04
2023-03-06T20:46:03.886Z,53.51
2023-03-06T20:48:31.697Z,56.47
2023-03-06T20:51:07.649Z,55.24
2023-03-06T20:53:35.613Z,56.53
2023-03-06T20:56:02.455Z,56.23
2023-03-06T20:58:29.239Z,55.80
2023-03-06T21:00:57.490Z,55.64
2023-03-06T21:03:24.938Z,55.92
2023-03-06T21:05:51.971Z,56.06
2023-03-06T21:08:18.749Z,55.63
2023-03-06T21:10:45.525Z,55.52
2023-03-06T21:13:12.414Z,55.50
2023-03-06T21:15:40.157Z,55.92
2023-03-06T21:18:07.202Z,56.04
2023-03-06T21:20:39.164Z,56.08
2023-03-06T21:23:09.246Z,56.04
2023-03-06T21:25:36.611Z,56.14
2023-03-06T21:28:03.188Z,56.50
2023-03-06T21:30:30.021Z,56.60
2023-03-06T21:32:56.666Z,56.72
2023-03-06T21:35:23.391Z,56.95
2023-03-06T21:37:50.173Z,57.02
2023-03-06T21:40:17.124Z,56.50
2023-03-06T21:42:43.823Z,56.55
2023-03-06T21:45:10.815Z,56.79
2023-03-06T21:47:37.942Z,56.67
2023-03-06T21:50:06.507Z,56.35
2023-03-06T21:52:33.212Z,56.51
2023-03-06T21:55:01.530Z,56.30
2023-03-06T21:57:28.256Z,56.29
2023-03-06T21:59:55.038Z,56.32
2023-03-06T22:02:23.383Z,56.29
2023-03-06T22:04:51.480Z,56.68
2023-03-06T22:07:19.765Z,56.26
2023-03-06T22:09:51.065Z,56.62
2023-03-06T22:12:18.730Z,56.66
2023-03-06T22:14:45.404Z,56.43
2023-03-06T22:17:12.076Z,56.70
2023-03-06T22:19:39.030Z,57.11
2023-03-06T22:22:05.671Z,56.60
2023-03-06T22:24:33.937Z,56.40
2023-03-06T22:27:04.174Z,54.46
2023-03-06T22:29:30.968Z,56.76
2023-03-06T22:31:57.596Z,55.98
2023-03-06T22:34:26.755Z,56.63
2023-03-06T22:36:53.305Z,56.88
2023-03-06T22:39:20.044Z,57.15
2023-03-06T22:41:46.660Z,57.39
2023-03-06T22:44:17.472Z,56.63
2023-03-06T22:46:44.398Z,57.23
2023-03-06T22:49:14.515Z,57.16
2023-03-06T22:51:43.035Z,56.81
2023-03-06T22:54:12.497Z,56.57
2023-03-06T22:56:41.804Z,56.77
2023-03-06T22:59:08.469Z,57.33
2023-03-06T23:01:35.290Z,57.15
2023-03-06T23:04:04.628Z,56.49
2023-03-06T23:06:36.926Z,55.76
2023-03-06T23:09:14.863Z,56.07
2023-03-06T23:11:59.922Z,57.36
2023-03-06T23:14:45.338Z,57.52
2023-03-06T23:17:30.798Z,57.55
2023-03-06T23:20:19.027Z,57.09
2023-03-06T23:23:06.650Z,57.84
2023-03-06T23:25:43.588Z,57.55
2023-03-06T23:28:12.330Z,57.81
2023-03-06T23:30:42.095Z,57.97
2023-03-06T23:33:09.051Z,57.99
2023-03-06T23:35:37.447Z,57.86
2023-03-06T23:38:04.089Z,57.84
2023-03-06T23:40:34.824Z,57.90
2023-03-06T23:43:01.509Z,57.98
2023-03-06T23:45:28.277Z,57.88
2023-03-06T23:47:56.394Z,57.72
2023-03-06T23:50:23.456Z,57.85
2023-03-06T23:52:53.971Z,57.51
2023-03-06T23:55:22.733Z,58.26
2023-03-06T23:57:49.363Z,58.50
